createdAt,value
2023-09-09T00:01:31.859Z,18.97
2023-09-09T00:03:59.653Z,18.98
2023-09-09T00:06:26.488Z,18.97
2023-09-09T00:08:52.993Z,18.97
2023-09-09T00:11:19.493Z,19.02
2023-09-09T00:13:47.036Z,19.00
2023-09-09T00:16:13.988Z,19.00
2023-09-09T00:18:40.584Z,18.94
2023-09-09T00:21:07.106Z,18.91
2023-09-09T00:23:33.549Z,18.93
2023-09-09T00:26:00.135Z,18.95
2023-09-09T00:28:26.588Z,18.88
2023-09-09T00:30:53.133Z,18.88
2023-09-09T00:33:19.654Z,18.90
2023-09-09T00:35:46.143Z,18.82
2023-09-09T00:38:14.034Z,18.88
2023-09-09T00:41:04.523Z,18.84
2023-09-09T00:43:31.012Z,18.85
2023-09-09T00:45:57.825Z,18.81
2023-09-09T00:48:24.591Z,18.79
2023-09-09T00:50:51.133Z,18.76
2023-09-09T00:53:17.606Z,18.80
2023-09-09T00:55:44.827Z,18.75
2023-09-09T00:58:11.833Z,18.76
2023-09-09T01:00:39.581Z,18.75
2023-09-09T01:03:10.827Z,18.71
2023-09-09T01:05:39.574Z,18.73
2023-09-09T01:08:06.426Z,18.69
2023-09-09T01:10:33.366Z,18.65
2023-09-09T01:12:59.964Z,18.63
2023-09-09T01:15:27.385Z,18.67
2023-09-09T01:17:54.313Z,18.66
2023-09-09T01:20:21.496Z,18.62
2023-09-09T01:22:51.389Z,18.67
2023-09-09T01:25:18.026Z,18.57
2023-09-09T01:27:44.532Z,18.58
2023-09-09T01:30:12.479Z,18.63
2023-09-09T01:32:39.147Z,18.59
2023-09-09T01:35:06.377Z,18.61
2023-09-09T01:37:33.472Z,18.57
2023-09-09T01:40:08.818Z,18.58
2023-09-09T01:42:35.318Z,18.57
2023-09-09T01:45:01.854Z,18.60
2023-09-09T01:47:28.384Z,18.57
2023-09-09T01:49:54.892Z,18.57
2023-09-09T01:52:21.445Z,18.60
2023-09-09T01:54:47.983Z,18.62
2023-09-09T01:57:17.514Z,18.58
2023-09-09T01:59:44.397Z,18.58
2023-09-09T02:02:10.897Z,18.51
2023-09-09T02:04:37.476Z,18.53
2023-09-09T02:07:04.190Z,18.53
2023-09-09T02:09:30.985Z,18.51
2023-09-09T02:11:57.466Z,18.49
2023-09-09T02:14:24.481Z,18.47
2023-09-09T02:16:51.044Z,18.42
2023-09-09T02:19:17.552Z,18.44
2023-09-09T02:21:44.028Z,18.39
2023-09-09T02:24:10.567Z,18.37
2023-09-09T02:26:37.045Z,18.34
2023-09-09T02:29:03.535Z,18.34
2023-09-09T02:31:30.103Z,18.35
2023-09-09T02:33:56.751Z,18.32
2023-09-09T02:36:23.250Z,18.32
2023-09-09T02:38:49.750Z,18.35
2023-09-09T02:41:16.305Z,18.30
2023-09-09T02:43:42.997Z,18.32
2023-09-09T02:46:09.598Z,18.30
2023-09-09T02:48:36.291Z,18.29
2023-09-09T02:51:03.360Z,18.30
2023-09-09T02:53:31.213Z,18.31
2023-09-09T02:55:57.816Z,18.23
2023-09-09T02:58:24.343Z,18.30
2023-09-09T03:00:50.877Z,18.26
2023-09-09T03:03:17.592Z,18.26
2023-09-09T03:05:44.455Z,18.22
2023-09-09T03:08:10.997Z,18.24
2023-09-09T03:10:38.370Z,18.14
2023-09-09T03:13:04.897Z,18.17
2023-09-09T03:15:31.433Z,18.14
2023-09-09T03:17:58.043Z,18.15
2023-09-09T03:20:25.721Z,18.11
2023-09-09T03:22:53.018Z,18.08
2023-09-09T03:25:19.799Z,18.09
2023-09-09T03:27:46.347Z,18.10
2023-09-09T03:30:13.310Z,18.12
2023-09-09T03:32:39.855Z,18.08
2023-09-09T03:35:07.060Z,18.05
2023-09-09T03:37:33.549Z,18.04
2023-09-09T03:40:00.094Z,18.08
2023-09-09T03:42:26.701Z,18.05
2023-09-09T03:44:55.483Z,18.08
2023-09-09T03:47:22.647Z,18.08
2023-09-09T03:49:51.617Z,18.04
2023-09-09T03:52:18.109Z,18.03
2023-09-09T03:54:44.617Z,18.02
2023-09-09T03:57:11.103Z,18.01
2023-09-09T03:59:37.605Z,18.04
2023-09-09T04:02:04.249Z,18.04
2023-09-09T04:04:30.902Z,18.04
2023-09-09T04:06:57.509Z,17.97
2023-09-09T04:09:27.562Z,18.00
2023-09-09T04:11:54.446Z,18.00
2023-09-09T04:14:20.995Z,18.02
2023-09-09T04:16:47.592Z,18.04
2023-09-09T04:19:14.337Z,18.01
2023-09-09T04:21:40.857Z,18.01
2023-09-09T04:24:07.468Z,17.98
2023-09-09T04:26:33.970Z,17.99
2023-09-09T04:29:01.311Z,18.04
2023-09-09T04:31:27.869Z,18.01
2023-09-09T04:33:54.488Z,18.00
2023-09-09T04:36:21.057Z,18.04
2023-09-09T04:38:47.554Z,18.00
2023-09-09T04:41:14.105Z,18.02
2023-09-09T04:43:40.822Z,18.05
2023-09-09T04:46:07.564Z,18.02
2023-09-09T04:48:34.632Z,18.07
2023-09-09T04:51:01.208Z,17.98
2023-09-09T04:53:28.650Z,18.01
2023-09-09T04:55:55.496Z,18.02
2023-09-09T04:58:22.062Z,18.04
2023-09-09T05:00:48.562Z,18.00
2023-09-09T05:03:15.136Z,18.02
2023-09-09T05:05:41.656Z,18.02
2023-09-09T05:08:08.109Z,18.04
2023-09-09T05:10:35.531Z,18.07
2023-09-09T05:13:02.346Z,18.08
2023-09-09T05:15:28.885Z,18.12
2023-09-09T05:17:55.355Z,18.18
2023-09-09T05:20:22.528Z,18.20
2023-09-09T05:22:49.063Z,18.32
2023-09-09T05:25:15.719Z,18.27
2023-09-09T05:27:42.768Z,18.40
2023-09-09T05:30:09.320Z,18.42
2023-09-09T05:32:36.474Z,18.49
2023-09-09T05:35:03.671Z,18.52
2023-09-09T05:37:31.917Z,18.61
2023-09-09T05:40:00.666Z,18.68
2023-09-09T05:42:28.206Z,18.70
2023-09-09T05:44:54.731Z,18.76
2023-09-09T05:47:21.377Z,18.86
2023-09-09T05:49:48.969Z,18.91
2023-09-09T05:52:15.479Z,19.01
2023-09-09T05:54:42.989Z,19.11
2023-09-09T05:57:09.957Z,19.21
2023-09-09T05:59:36.633Z,19.27
2023-09-09T06:02:03.221Z,19.38
2023-09-09T06:04:29.793Z,19.46
2023-09-09T06:06:57.569Z,19.52
2023-09-09T06:09:24.102Z,19.65
2023-09-09T06:11:51.669Z,19.72
2023-09-09T06:14:18.199Z,19.83
2023-09-09T06:16:44.742Z,19.92
2023-09-09T06:19:11.357Z,19.97
2023-09-09T06:21:38.769Z,20.09
2023-09-09T06:24:05.600Z,20.16
2023-09-09T06:26:34.919Z,20.27
2023-09-09T06:29:02.302Z,20.38
2023-09-09T06:31:29.295Z,20.41
2023-09-09T06:33:55.910Z,20.54
2023-09-09T06:36:23.163Z,20.59
2023-09-09T06:38:50.787Z,20.74
2023-09-09T06:41:17.456Z,20.84
2023-09-09T06:43:44.508Z,20.93
2023-09-09T06:46:11.078Z,21.01
2023-09-09T06:48:37.820Z,21.05
2023-09-09T06:51:04.366Z,21.16
2023-09-09T06:53:30.945Z,21.23
2023-09-09T06:55:57.417Z,21.32
2023-09-09T06:58:23.952Z,21.34
2023-09-09T07:00:54.054Z,21.50
2023-09-09T07:03:21.575Z,21.51
2023-09-09T07:05:48.759Z,21.67
2023-09-09T07:08:15.633Z,21.67
2023-09-09T07:10:52.465Z,21.81
2023-09-09T07:13:20.126Z,21.84
2023-09-09T07:15:46.660Z,21.91
2023-09-09T07:18:13.282Z,21.99
2023-09-09T07:20:40.216Z,22.05
2023-09-09T07:23:06.840Z,22.19
2023-09-09T07:25:34.760Z,22.21
2023-09-09T07:28:01.459Z,22.32
2023-09-09T07:30:28.016Z,22.40
2023-09-09T07:32:54.565Z,22.45
2023-09-09T07:35:21.100Z,22.49
2023-09-09T07:37:48.696Z,22.61
2023-09-09T07:40:17.651Z,22.64
2023-09-09T07:42:44.167Z,22.78
2023-09-09T07:45:11.030Z,22.86
2023-09-09T07:47:37.509Z,22.84
2023-09-09T07:50:04.455Z,22.91
2023-09-09T07:52:30.957Z,23.02
2023-09-09T07:54:58.924Z,23.08
2023-09-09T07:57:25.357Z,23.12
2023-09-09T07:59:51.838Z,23.20
2023-09-09T08:02:18.279Z,23.23
2023-09-09T08:04:45.013Z,23.26
2023-09-09T08:07:11.609Z,23.30
2023-09-09T08:09:38.116Z,23.41
2023-09-09T08:12:04.980Z,23.45
2023-09-09T08:14:31.529Z,23.51
2023-09-09T08:16:58.136Z,23.56
2023-09-09T08:19:24.675Z,23.59
2023-09-09T08:21:51.358Z,23.62
2023-09-09T08:24:17.793Z,23.67
2023-09-09T08:26:44.343Z,23.73
2023-09-09T08:29:11.046Z,23.70
2023-09-09T08:31:37.697Z,23.79
2023-09-09T08:34:04.319Z,23.89
2023-09-09T08:36:30.821Z,23.94
2023-09-09T08:38:58.502Z,24.00
2023-09-09T08:41:37.247Z,24.03
2023-09-09T08:44:33.229Z,24.06
2023-09-09T08:46:59.782Z,24.15
2023-09-09T08:49:28.706Z,24.19
2023-09-09T08:52:02.529Z,24.22
2023-09-09T08:54:29.399Z,24.27
2023-09-09T08:56:57.181Z,24.34
2023-09-09T08:59:25.588Z,24.37
2023-09-09T09:01:53.158Z,24.46
2023-09-09T09:04:20.481Z,24.54
2023-09-09T09:06:50.133Z,24.53
2023-09-09T09:09:17.887Z,24.59
2023-09-09T09:11:45.459Z,24.63
2023-09-09T09:14:12.009Z,24.73
2023-09-09T09:16:41.199Z,24.82
2023-09-09T09:19:17.747Z,24.90
2023-09-09T09:21:44.869Z,24.90
2023-09-09T09:24:11.492Z,24.96
2023-09-09T09:26:38.599Z,25.01
2023-09-09T09:29:08.093Z,25.06
2023-09-09T09:31:34.685Z,25.14
2023-09-09T09:34:01.226Z,25.09
2023-09-09T09:36:28.489Z,25.17
2023-09-09T09:38:56.116Z,25.25
2023-09-09T09:41:23.545Z,25.32
2023-09-09T09:43:51.603Z,25.38
2023-09-09T09:46:20.404Z,25.48
2023-09-09T09:48:47.595Z,25.56
2023-09-09T09:51:14.455Z,25.59
2023-09-09T09:53:50.010Z,25.69
2023-09-09T09:56:17.278Z,25.76
2023-09-09T09:58:49.288Z,25.76
2023-09-09T10:01:16.462Z,25.83
2023-09-09T10:03:52.532Z,25.86
2023-09-09T10:06:26.897Z,25.88
2023-09-09T10:09:11.508Z,25.96
2023-09-09T10:11:45.887Z,26.00
2023-09-09T10:14:15.525Z,26.05
2023-09-09T10:16:45.512Z,26.11
2023-09-09T10:19:13.588Z,26.17
2023-09-09T10:21:42.821Z,26.22
2023-09-09T10:24:10.782Z,26.27
2023-09-09T10:26:39.009Z,26.38
2023-09-09T10:29:06.967Z,26.30
2023-09-09T10:31:36.126Z,26.36
2023-09-09T10:34:04.147Z,26.41
2023-09-09T10:36:40.698Z,26.49
2023-09-09T10:39:16.762Z,26.52
2023-09-09T10:41:44.026Z,26.62
2023-09-09T10:44:10.613Z,26.71
2023-09-09T10:46:41.118Z,26.78
2023-09-09T10:49:07.927Z,26.81
2023-09-09T10:51:51.998Z,26.90
2023-09-09T10:54:19.971Z,26.90
2023-09-09T10:56:51.783Z,26.91
2023-09-09T10:59:25.830Z,26.90
2023-09-09T11:02:09.313Z,27.02
2023-09-09T11:04:42.381Z,27.10
2023-09-09T11:07:11.106Z,27.16
2023-09-09T11:09:38.566Z,27.19
2023-09-09T11:12:12.954Z,27.18
2023-09-09T11:14:45.448Z,27.19
2023-09-09T11:17:12.677Z,27.36
2023-09-09T11:19:41.130Z,27.27
2023-09-09T11:22:09.704Z,27.33
2023-09-09T11:24:36.288Z,27.35
2023-09-09T11:27:03.541Z,27.43
2023-09-09T11:29:36.886Z,27.44
2023-09-09T11:32:08.644Z,27.36
2023-09-09T11:34:35.371Z,27.38
2023-09-09T11:37:03.926Z,27.50
2023-09-09T11:39:30.736Z,27.55
2023-09-09T11:41:57.223Z,27.57
2023-09-09T11:44:23.934Z,27.63
2023-09-09T11:46:50.984Z,27.69
2023-09-09T11:49:18.274Z,27.67
2023-09-09T11:51:45.939Z,27.69
2023-09-09T11:54:18.856Z,27.79
2023-09-09T11:56:45.390Z,27.78
2023-09-09T11:59:11.986Z,27.77
2023-09-09T12:01:46.202Z,27.79
2023-09-09T12:04:14.883Z,27.79
2023-09-09T12:06:46.753Z,27.87
2023-09-09T12:09:14.699Z,27.92
2023-09-09T12:11:45.084Z,27.91
2023-09-09T12:14:13.924Z,27.93
2023-09-09T12:16:41.542Z,27.97
2023-09-09T12:19:12.882Z,27.94
2023-09-09T12:21:47.073Z,27.84
2023-09-09T12:24:13.858Z,27.89
2023-09-09T12:26:40.734Z,27.84
2023-09-09T12:29:11.911Z,27.97
2023-09-09T12:31:59.538Z,28.02
2023-09-09T12:34:27.593Z,28.06
2023-09-09T12:36:59.420Z,28.00
2023-09-09T12:39:27.227Z,28.08
2023-09-09T12:42:09.877Z,28.05
2023-09-09T12:44:50.862Z,28.00
2023-09-09T12:47:24.697Z,28.07
2023-09-09T12:49:52.223Z,28.02
2023-09-09T12:52:18.943Z,28.08
2023-09-09T12:54:45.475Z,28.15
2023-09-09T12:57:12.048Z,28.15
2023-09-09T12:59:38.582Z,28.17
2023-09-09T13:02:05.085Z,28.14
2023-09-09T13:04:31.712Z,28.18
2023-09-09T13:06:58.215Z,28.18
2023-09-09T13:09:25.618Z,28.13
2023-09-09T13:11:52.215Z,28.16
2023-09-09T13:14:25.576Z,28.28
2023-09-09T13:16:53.050Z,28.26
2023-09-09T13:19:20.785Z,28.35
2023-09-09T13:21:47.352Z,28.36
2023-09-09T13:24:13.866Z,28.37
2023-09-09T13:26:40.363Z,28.35
2023-09-09T13:29:06.898Z,28.33
2023-09-09T13:31:33.555Z,28.39
2023-09-09T13:34:00.214Z,28.33
2023-09-09T13:36:26.770Z,28.30
2023-09-09T13:38:53.333Z,28.42
2023-09-09T13:41:20.389Z,28.40
2023-09-09T13:43:46.896Z,28.37
2023-09-09T13:46:14.315Z,28.43
2023-09-09T13:48:41.385Z,28.41
2023-09-09T13:51:10.966Z,28.40
2023-09-09T13:53:37.566Z,28.30
2023-09-09T13:56:04.279Z,28.35
2023-09-09T13:58:30.747Z,28.43
2023-09-09T14:00:58.699Z,28.47
2023-09-09T14:03:25.556Z,28.52
2023-09-09T14:05:52.182Z,28.46
2023-09-09T14:08:18.714Z,28.48
2023-09-09T14:10:45.198Z,28.52
2023-09-09T14:13:11.725Z,28.56
2023-09-09T14:15:38.285Z,28.56
2023-09-09T14:18:05.090Z,28.52
2023-09-09T14:20:31.610Z,28.53
2023-09-09T14:22:58.164Z,28.55
2023-09-09T14:25:24.711Z,28.50
2023-09-09T14:27:51.422Z,28.48
2023-09-09T14:30:18.010Z,28.48
2023-09-09T14:32:44.586Z,28.48
2023-09-09T14:35:11.172Z,28.40
2023-09-09T14:37:37.704Z,28.43
2023-09-09T14:40:04.767Z,28.46
2023-09-09T14:42:31.266Z,28.48
2023-09-09T14:44:57.771Z,28.46
2023-09-09T14:47:24.330Z,28.41
2023-09-09T14:49:50.832Z,28.42
2023-09-09T14:52:17.388Z,28.40
2023-09-09T14:54:43.968Z,28.40
2023-09-09T14:57:10.533Z,28.43
2023-09-09T14:59:37.066Z,28.39
2023-09-09T15:02:04.009Z,28.41
2023-09-09T15:04:30.682Z,28.33
2023-09-09T15:06:57.222Z,28.40
2023-09-09T15:09:23.681Z,28.35
2023-09-09T15:11:50.253Z,28.45
2023-09-09T15:14:16.883Z,28.40
2023-09-09T15:16:50.591Z,28.44
2023-09-09T15:19:17.732Z,28.41
2023-09-09T15:21:44.485Z,28.45
2023-09-09T15:24:11.148Z,28.40
2023-09-09T15:26:38.992Z,28.45
2023-09-09T15:29:06.330Z,28.41
2023-09-09T15:31:35.061Z,28.42
2023-09-09T15:34:02.025Z,28.44
2023-09-09T15:36:28.575Z,28.41
2023-09-09T15:38:55.017Z,28.45
2023-09-09T15:41:24.187Z,28.38
2023-09-09T15:43:51.694Z,28.42
2023-09-09T15:46:18.446Z,28.40
2023-09-09T15:48:45.036Z,28.34
2023-09-09T15:51:11.566Z,28.39
2023-09-09T15:53:38.030Z,28.33
2023-09-09T15:56:11.365Z,28.33
2023-09-09T15:58:38.232Z,28.28
2023-09-09T16:01:05.144Z,28.25
2023-09-09T16:03:31.742Z,28.28
2023-09-09T16:06:05.584Z,28.29
2023-09-09T16:08:33.162Z,28.22
2023-09-09T16:11:00.050Z,28.25
2023-09-09T16:13:27.255Z,28.25
2023-09-09T16:16:01.113Z,28.21
2023-09-09T16:18:28.154Z,28.15
2023-09-09T16:20:55.075Z,28.15
2023-09-09T16:23:21.614Z,28.10
2023-09-09T16:25:48.178Z,28.07
2023-09-09T16:28:14.717Z,28.03
2023-09-09T16:30:41.522Z,28.01
2023-09-09T16:33:08.152Z,27.97
2023-09-09T16:35:34.676Z,27.89
2023-09-09T16:38:01.138Z,27.85
2023-09-09T16:40:27.738Z,27.77
2023-09-09T16:42:54.226Z,27.69
2023-09-09T16:45:20.839Z,27.65
2023-09-09T16:47:47.361Z,27.54
2023-09-09T16:50:14.043Z,27.43
2023-09-09T16:52:40.570Z,27.33
2023-09-09T16:55:07.753Z,27.24
2023-09-09T16:57:34.216Z,27.15
2023-09-09T17:00:00.698Z,27.04
2023-09-09T17:02:31.170Z,26.94
2023-09-09T17:04:58.199Z,26.83
2023-09-09T17:07:25.421Z,26.76
2023-09-09T17:09:53.123Z,26.61
2023-09-09T17:12:20.031Z,26.47
2023-09-09T17:14:47.022Z,26.39
2023-09-09T17:17:13.560Z,26.26
2023-09-09T17:19:40.062Z,26.15
2023-09-09T17:22:06.598Z,26.01
2023-09-09T17:24:33.137Z,25.90
2023-09-09T17:26:59.901Z,25.78
2023-09-09T17:29:26.565Z,25.69
2023-09-09T17:31:53.286Z,25.51
2023-09-09T17:34:20.861Z,25.44
2023-09-09T17:36:47.368Z,25.34
2023-09-09T17:39:19.156Z,25.18
2023-09-09T17:41:45.915Z,25.04
2023-09-09T17:44:12.988Z,24.96
2023-09-09T17:46:39.662Z,24.82
2023-09-09T17:49:07.353Z,24.74
2023-09-09T17:51:34.356Z,24.64
2023-09-09T17:54:02.216Z,24.59
2023-09-09T17:56:28.762Z,24.48
2023-09-09T17:58:55.442Z,24.42
2023-09-09T18:01:23.771Z,24.32
2023-09-09T18:03:52.116Z,24.23
2023-09-09T18:06:22.996Z,24.14
2023-09-09T18:08:53.082Z,24.07
2023-09-09T18:11:21.400Z,23.97
2023-09-09T18:13:48.853Z,23.92
2023-09-09T18:16:16.414Z,23.81
2023-09-09T18:18:43.392Z,23.76
2023-09-09T18:21:10.225Z,23.70
2023-09-09T18:23:38.080Z,23.64
2023-09-09T18:26:04.942Z,23.56
2023-09-09T18:28:31.969Z,23.49
2023-09-09T18:31:00.419Z,23.38
2023-09-09T18:33:28.187Z,23.31
2023-09-09T18:35:55.208Z,23.27
2023-09-09T18:38:22.058Z,23.22
2023-09-09T18:40:51.081Z,23.14
2023-09-09T18:43:17.729Z,23.07
2023-09-09T18:45:47.620Z,22.98
2023-09-09T18:48:16.350Z,22.92
2023-09-09T18:50:42.903Z,22.83
2023-09-09T18:53:09.541Z,22.77
2023-09-09T18:55:36.511Z,22.64
2023-09-09T18:58:03.141Z,22.67
2023-09-09T19:00:29.748Z,22.62
2023-09-09T19:02:57.227Z,22.51
2023-09-09T19:05:24.330Z,22.44
2023-09-09T19:07:51.018Z,22.50
2023-09-09T19:10:17.696Z,22.45
2023-09-09T19:12:44.459Z,22.35
2023-09-09T19:15:11.331Z,22.35
2023-09-09T19:17:38.036Z,22.28
2023-09-09T19:20:05.243Z,22.23
2023-09-09T19:22:31.842Z,22.16
2023-09-09T19:24:58.460Z,22.13
2023-09-09T19:27:26.061Z,22.11
2023-09-09T19:29:53.418Z,22.04
2023-09-09T19:32:20.149Z,21.95
2023-09-09T19:34:47.817Z,21.94
2023-09-09T19:37:14.331Z,21.90
2023-09-09T19:39:40.809Z,21.83
2023-09-09T19:42:07.409Z,21.84
2023-09-09T19:44:33.925Z,21.78
2023-09-09T19:47:00.821Z,21.72
2023-09-09T19:49:27.468Z,21.71
2023-09-09T19:51:54.086Z,21.60
2023-09-09T19:54:20.717Z,21.59
2023-09-09T19:56:49.739Z,21.48
2023-09-09T19:59:17.858Z,21.48
2023-09-09T20:01:44.405Z,21.40
2023-09-09T20:04:11.010Z,21.36
2023-09-09T20:06:37.735Z,21.35
2023-09-09T20:09:04.928Z,21.26
2023-09-09T20:11:31.501Z,21.27
2023-09-09T20:13:58.834Z,21.21
2023-09-09T20:16:25.600Z,21.19
2023-09-09T20:18:52.151Z,21.18
2023-09-09T20:21:18.661Z,21.09
2023-09-09T20:23:45.190Z,21.11
2023-09-09T20:26:11.692Z,21.07
2023-09-09T20:28:38.487Z,20.97
2023-09-09T20:31:05.414Z,21.01
2023-09-09T20:33:31.902Z,20.92
2023-09-09T20:35:58.410Z,20.91
2023-09-09T20:38:24.900Z,20.85
2023-09-09T20:40:51.559Z,20.84
2023-09-09T20:43:19.208Z,20.80
2023-09-09T20:45:45.695Z,20.73
2023-09-09T20:48:15.268Z,20.70
2023-09-09T20:50:41.945Z,20.67
2023-09-09T20:53:08.397Z,20.61
2023-09-09T20:55:37.131Z,20.59
2023-09-09T20:58:03.851Z,20.59
2023-09-09T21:00:30.728Z,20.61
2023-09-09T21:02:57.281Z,20.58
2023-09-09T21:05:23.845Z,20.59
2023-09-09T21:07:51.071Z,20.54
2023-09-09T21:10:18.774Z,20.55
2023-09-09T21:12:47.504Z,20.48
2023-09-09T21:15:15.117Z,20.48
2023-09-09T21:17:42.729Z,20.43
2023-09-09T21:20:10.511Z,20.37
2023-09-09T21:22:37.426Z,20.37
2023-09-09T21:25:04.798Z,20.29
2023-09-09T21:27:31.391Z,20.20
2023-09-09T21:29:57.864Z,20.21
2023-09-09T21:32:24.820Z,20.20
2023-09-09T21:34:52.240Z,20.13
2023-09-09T21:37:19.767Z,20.11
2023-09-09T21:39:46.571Z,20.08
2023-09-09T21:42:14.576Z,20.03
2023-09-09T21:44:41.793Z,20.05
2023-09-09T21:47:08.341Z,20.09
2023-09-09T21:49:35.037Z,20.07
2023-09-09T21:52:03.606Z,20.06
2023-09-09T21:54:30.351Z,20.05
2023-09-09T21:56:56.862Z,20.04
2023-09-09T21:59:23.487Z,20.06
2023-09-09T22:01:50.009Z,20.10
2023-09-09T22:04:16.572Z,20.05
2023-09-09T22:06:43.165Z,20.10
2023-09-09T22:09:09.680Z,20.09
2023-09-09T22:11:36.248Z,20.07
2023-09-09T22:14:02.785Z,20.06
2023-09-09T22:16:29.330Z,20.10
2023-09-09T22:18:55.881Z,20.06
2023-09-09T22:21:22.582Z,20.11
2023-09-09T22:23:49.186Z,20.05
2023-09-09T22:26:30.821Z,19.99
2023-09-09T22:28:58.164Z,19.95
2023-09-09T22:31:25.815Z,19.91
2023-09-09T22:33:53.401Z,19.88
2023-09-09T22:36:20.777Z,19.88
2023-09-09T22:38:47.514Z,19.81
2023-09-09T22:41:14.448Z,19.79
2023-09-09T22:43:41.100Z,19.78
2023-09-09T22:46:09.627Z,19.76
2023-09-09T22:48:37.133Z,19.75
2023-09-09T22:51:05.620Z,19.74
2023-09-09T22:53:33.103Z,19.74
2023-09-09T22:56:02.223Z,19.76
2023-09-09T22:58:28.838Z,19.69
2023-09-09T23:00:57.741Z,19.72
2023-09-09T23:03:27.163Z,19.61
2023-09-09T23:05:53.727Z,19.67
2023-09-09T23:08:20.306Z,19.66
2023-09-09T23:10:46.936Z,19.67
2023-09-09T23:13:14.077Z,19.66
2023-09-09T23:15:41.081Z,19.59
2023-09-09T23:18:07.996Z,19.53
2023-09-09T23:20:35.089Z,19.58
2023-09-09T23:23:01.776Z,19.59
2023-09-09T23:25:28.460Z,19.59
2023-09-09T23:27:55.127Z,19.55
2023-09-09T23:30:21.764Z,19.52
2023-09-09T23:32:48.379Z,19.47
2023-09-09T23:35:15.085Z,19.43
2023-09-09T23:37:42.125Z,19.44
2023-09-09T23:40:09.908Z,19.46
2023-09-09T23:42:37.140Z,19.41
2023-09-09T23:45:04.012Z,19.39
2023-09-09T23:47:30.523Z,19.39
2023-09-09T23:49:57.089Z,19.33
2023-09-09T23:52:23.896Z,19.27
2023-09-09T23:54:50.399Z,19.25
2023-09-09T23:57:16.964Z,19.32
2023-09-09T23:59:43.580Z,19.31
